sensor_id;sensor_type;location;lat;lon;timestamp;P1;durP1;ratioP1;P2;durP2;ratioP2
56824;SDS011;42705;50.326;18.772;2022-11-15T00:04:56;45.43;;;22.07;;
56824;SDS011;42705;50.326;18.772;2022-11-15T00:10:36;41.68;;;21.10;;
56824;SDS011;42705;50.326;18.772;2022-11-15T00:16:16;42.33;;;20.95;;
56824;SDS011;42705;50.326;18.772;2022-11-15T00:21:56;44.38;;;20.60;;
56824;SDS011;42705;50.326;18.772;2022-11-15T00:27:35;36.03;;;18.15;;
56824;SDS011;42705;50.326;18.772;2022-11-15T00:33:15;42.58;;;20.62;;
56824;SDS011;42705;50.326;18.772;2022-11-15T00:38:54;39.27;;;19.15;;
56824;SDS011;42705;50.326;18.772;2022-11-15T00:44:33;38.50;;;18.75;;
56824;SDS011;42705;50.326;18.772;2022-11-15T00:50:13;31.82;;;16.70;;
56824;SDS011;42705;50.326;18.772;2022-11-15T00:55:53;37.00;;;18.40;;
56824;SDS011;42705;50.326;18.772;2022-11-15T01:01:33;35.23;;;22.10;;
56824;SDS011;42705;50.326;18.772;2022-11-15T01:07:13;36.48;;;19.12;;
56824;SDS011;42705;50.326;18.772;2022-11-15T01:12:52;38.70;;;19.32;;
56824;SDS011;42705;50.326;18.772;2022-11-15T01:18:32;36.25;;;18.23;;
56824;SDS011;42705;50.326;18.772;2022-11-15T01:24:11;32.45;;;18.12;;
56824;SDS011;42705;50.326;18.772;2022-11-15T01:29:52;31.93;;;16.73;;
56824;SDS011;42705;50.326;18.772;2022-11-15T01:35:31;34.03;;;18.55;;
56824;SDS011;42705;50.326;18.772;2022-11-15T01:41:19;37.55;;;18.40;;
56824;SDS011;42705;50.326;18.772;2022-11-15T01:47:03;34.83;;;17.40;;
56824;SDS011;42705;50.326;18.772;2022-11-15T01:52:50;32.48;;;17.67;;
56824;SDS011;42705;50.326;18.772;2022-11-15T01:58:29;33.40;;;16.95;;
56824;SDS011;42705;50.326;18.772;2022-11-15T02:04:14;33.80;;;18.75;;
56824;SDS011;42705;50.326;18.772;2022-11-15T02:10:11;38.73;;;21.87;;
56824;SDS011;42705;50.326;18.772;2022-11-15T02:16:02;38.28;;;19.57;;
56824;SDS011;42705;50.326;18.772;2022-11-15T02:22:10;34.73;;;18.02;;
56824;SDS011;42705;50.326;18.772;2022-11-15T02:46:14;38.05;;;19.87;;
56824;SDS011;42705;50.326;18.772;2022-11-15T02:52:37;36.50;;;19.07;;
56824;SDS011;42705;50.326;18.772;2022-11-15T03:10:51;39.15;;;19.42;;
56824;SDS011;42705;50.326;18.772;2022-11-15T03:16:51;38.70;;;18.98;;
56824;SDS011;42705;50.326;18.772;2022-11-15T03:22:42;36.38;;;19.05;;
56824;SDS011;42705;50.326;18.772;2022-11-15T03:28:25;34.33;;;18.85;;
56824;SDS011;42705;50.326;18.772;2022-11-15T03:34:10;35.63;;;19.95;;
56824;SDS011;42705;50.326;18.772;2022-11-15T03:40:03;35.23;;;16.90;;
56824;SDS011;42705;50.326;18.772;2022-11-15T03:45:50;36.08;;;16.90;;
56824;SDS011;42705;50.326;18.772;2022-11-15T03:51:29;32.63;;;18.23;;
56824;SDS011;42705;50.326;18.772;2022-11-15T03:57:09;35.08;;;17.65;;
56824;SDS011;42705;50.326;18.772;2022-11-15T04:02:48;30.55;;;15.63;;
56824;SDS011;42705;50.326;18.772;2022-11-15T04:08:28;27.65;;;15.70;;
56824;SDS011;42705;50.326;18.772;2022-11-15T04:14:07;28.60;;;15.25;;
56824;SDS011;42705;50.326;18.772;2022-11-15T04:19:46;28.27;;;16.75;;
56824;SDS011;42705;50.326;18.772;2022-11-15T04:25:44;31.20;;;15.75;;
56824;SDS011;42705;50.326;18.772;2022-11-15T04:31:25;32.05;;;16.65;;
56824;SDS011;42705;50.326;18.772;2022-11-15T04:37:05;30.65;;;15.32;;
56824;SDS011;42705;50.326;18.772;2022-11-15T04:42:50;31.02;;;16.73;;
56824;SDS011;42705;50.326;18.772;2022-11-15T04:48:29;28.80;;;15.10;;
56824;SDS011;42705;50.326;18.772;2022-11-15T04:54:08;32.28;;;15.83;;
56824;SDS011;42705;50.326;18.772;2022-11-15T04:59:47;29.05;;;16.00;;
56824;SDS011;42705;50.326;18.772;2022-11-15T05:05:26;30.37;;;16.73;;
56824;SDS011;42705;50.326;18.772;2022-11-15T05:11:06;33.85;;;17.02;;
56824;SDS011;42705;50.326;18.772;2022-11-15T05:16:45;37.88;;;18.30;;
56824;SDS011;42705;50.326;18.772;2022-11-15T05:22:24;35.40;;;18.07;;
56824;SDS011;42705;50.326;18.772;2022-11-15T05:28:03;35.58;;;16.20;;
56824;SDS011;42705;50.326;18.772;2022-11-15T05:33:42;41.00;;;20.40;;
56824;SDS011;42705;50.326;18.772;2022-11-15T05:39:23;39.65;;;20.77;;
56824;SDS011;42705;50.326;18.772;2022-11-15T05:45:04;44.90;;;20.70;;
56824;SDS011;42705;50.326;18.772;2022-11-15T05:50:46;41.30;;;19.95;;
56824;SDS011;42705;50.326;18.772;2022-11-15T05:56:26;40.38;;;20.20;;
56824;SDS011;42705;50.326;18.772;2022-11-15T06:02:07;39.15;;;20.65;;
56824;SDS011;42705;50.326;18.772;2022-11-15T06:07:47;45.43;;;22.02;;
56824;SDS011;42705;50.326;18.772;2022-11-15T06:13:26;47.83;;;22.05;;
56824;SDS011;42705;50.326;18.772;2022-11-15T06:19:06;36.53;;;19.52;;
56824;SDS011;42705;50.326;18.772;2022-11-15T06:24:46;33.85;;;18.50;;
56824;SDS011;42705;50.326;18.772;2022-11-15T06:30:25;34.13;;;19.00;;
56824;SDS011;42705;50.326;18.772;2022-11-15T06:36:06;48.83;;;23.00;;
56824;SDS011;42705;50.326;18.772;2022-11-15T06:47:27;61.90;;;30.00;;
56824;SDS011;42705;50.326;18.772;2022-11-15T06:53:07;61.30;;;29.12;;
56824;SDS011;42705;50.326;18.772;2022-11-15T06:58:46;46.98;;;23.40;;
56824;SDS011;42705;50.326;18.772;2022-11-15T07:04:25;69.42;;;36.05;;
56824;SDS011;42705;50.326;18.772;2022-11-15T07:10:04;83.85;;;42.67;;
56824;SDS011;42705;50.326;18.772;2022-11-15T07:15:45;78.05;;;37.75;;
56824;SDS011;42705;50.326;18.772;2022-11-15T07:21:25;54.38;;;27.30;;
56824;SDS011;42705;50.326;18.772;2022-11-15T07:27:04;54.95;;;26.62;;
56824;SDS011;42705;50.326;18.772;2022-11-15T07:32:44;60.92;;;30.17;;
56824;SDS011;42705;50.326;18.772;2022-11-15T07:38:23;71.60;;;32.25;;
56824;SDS011;42705;50.326;18.772;2022-11-15T07:44:02;68.97;;;33.38;;
56824;SDS011;42705;50.326;18.772;2022-11-15T07:49:42;68.47;;;34.00;;
56824;SDS011;42705;50.326;18.772;2022-11-15T07:55:22;67.47;;;32.35;;
56824;SDS011;42705;50.326;18.772;2022-11-15T08:01:05;58.05;;;29.72;;
56824;SDS011;42705;50.326;18.772;2022-11-15T08:06:47;60.67;;;30.75;;
56824;SDS011;42705;50.326;18.772;2022-11-15T08:12:27;68.80;;;36.35;;
56824;SDS011;42705;50.326;18.772;2022-11-15T08:18:11;69.07;;;36.13;;
56824;SDS011;42705;50.326;18.772;2022-11-15T08:23:53;71.90;;;39.27;;
56824;SDS011;42705;50.326;18.772;2022-11-15T08:29:32;73.80;;;38.33;;
56824;SDS011;42705;50.326;18.772;2022-11-15T08:35:11;69.77;;;36.45;;
56824;SDS011;42705;50.326;18.772;2022-11-15T08:40:52;67.97;;;38.55;;
56824;SDS011;42705;50.326;18.772;2022-11-15T08:46:35;75.00;;;38.40;;
56824;SDS011;42705;50.326;18.772;2022-11-15T08:52:14;72.00;;;38.35;;
56824;SDS011;42705;50.326;18.772;2022-11-15T08:57:56;63.13;;;35.63;;
56824;SDS011;42705;50.326;18.772;2022-11-15T09:03:36;51.00;;;27.25;;
56824;SDS011;42705;50.326;18.772;2022-11-15T09:09:18;45.15;;;25.37;;
56824;SDS011;42705;50.326;18.772;2022-11-15T09:14:57;50.05;;;27.37;;
56824;SDS011;42705;50.326;18.772;2022-11-15T09:20:36;49.33;;;25.85;;
56824;SDS011;42705;50.326;18.772;2022-11-15T09:26:15;38.33;;;21.93;;
56824;SDS011;42705;50.326;18.772;2022-11-15T09:31:55;29.92;;;18.35;;
56824;SDS011;42705;50.326;18.772;2022-11-15T09:37:34;33.55;;;19.40;;
56824;SDS011;42705;50.326;18.772;2022-11-15T09:43:31;36.35;;;20.57;;
56824;SDS011;42705;50.326;18.772;2022-11-15T09:49:31;37.15;;;20.75;;
56824;SDS011;42705;50.326;18.772;2022-11-15T09:55:01;34.40;;;20.72;;
56824;SDS011;42705;50.326;18.772;2022-11-15T10:00:31;35.70;;;20.65;;
56824;SDS011;42705;50.326;18.772;2022-11-15T10:05:56;37.30;;;22.25;;
56824;SDS011;42705;50.326;18.772;2022-11-15T10:11:22;41.85;;;23.95;;
56824;SDS011;42705;50.326;18.772;2022-11-15T10:33:41;52.70;;;27.73;;
56824;SDS011;42705;50.326;18.772;2022-11-15T10:39:02;53.78;;;32.85;;
56824;SDS011;42705;50.326;18.772;2022-11-15T10:44:28;48.87;;;30.07;;
56824;SDS011;42705;50.326;18.772;2022-11-15T10:49:55;46.18;;;26.20;;
56824;SDS011;42705;50.326;18.772;2022-11-15T10:55:21;42.00;;;25.25;;
56824;SDS011;42705;50.326;18.772;2022-11-15T11:00:49;43.10;;;25.35;;
56824;SDS011;42705;50.326;18.772;2022-11-15T11:06:16;44.65;;;23.80;;
56824;SDS011;42705;50.326;18.772;2022-11-15T11:23:14;45.92;;;26.30;;
56824;SDS011;42705;50.326;18.772;2022-11-15T11:34:36;30.60;;;18.90;;
56824;SDS011;42705;50.326;18.772;2022-11-15T11:40:34;28.17;;;17.70;;
56824;SDS011;42705;50.326;18.772;2022-11-15T11:46:12;24.92;;;16.12;;
56824;SDS011;42705;50.326;18.772;2022-11-15T12:03:40;26.95;;;18.00;;
56824;SDS011;42705;50.326;18.772;2022-11-15T12:15:02;26.65;;;17.52;;
56824;SDS011;42705;50.326;18.772;2022-11-15T12:20:37;28.42;;;18.32;;
56824;SDS011;42705;50.326;18.772;2022-11-15T12:26:09;30.57;;;20.00;;
56824;SDS011;42705;50.326;18.772;2022-11-15T12:31:39;31.50;;;19.98;;
56824;SDS011;42705;50.326;18.772;2022-11-15T12:54:14;29.50;;;19.07;;
56824;SDS011;42705;50.326;18.772;2022-11-15T12:59:54;32.55;;;20.37;;
56824;SDS011;42705;50.326;18.772;2022-11-15T13:23:00;31.77;;;18.05;;
56824;SDS011;42705;50.326;18.772;2022-11-15T13:28:35;28.92;;;18.67;;
56824;SDS011;42705;50.326;18.772;2022-11-15T13:39:50;31.80;;;19.20;;
56824;SDS011;42705;50.326;18.772;2022-11-15T13:45:13;29.82;;;19.15;;
56824;SDS011;42705;50.326;18.772;2022-11-15T13:50:37;31.45;;;17.70;;
56824;SDS011;42705;50.326;18.772;2022-11-15T13:56:00;33.70;;;20.60;;
56824;SDS011;42705;50.326;18.772;2022-11-15T14:01:23;30.15;;;19.12;;
56824;SDS011;42705;50.326;18.772;2022-11-15T14:06:50;31.65;;;19.48;;
56824;SDS011;42705;50.326;18.772;2022-11-15T14:12:25;37.13;;;21.25;;
56824;SDS011;42705;50.326;18.772;2022-11-15T14:17:52;32.13;;;20.52;;
56824;SDS011;42705;50.326;18.772;2022-11-15T14:28:47;33.40;;;20.52;;
56824;SDS011;42705;50.326;18.772;2022-11-15T14:34:08;36.30;;;19.25;;
56824;SDS011;42705;50.326;18.772;2022-11-15T14:39:29;34.27;;;19.73;;
56824;SDS011;42705;50.326;18.772;2022-11-15T14:44:50;40.58;;;23.67;;
56824;SDS011;42705;50.326;18.772;2022-11-15T14:50:17;42.05;;;23.15;;
56824;SDS011;42705;50.326;18.772;2022-11-15T14:55:38;41.13;;;24.27;;
56824;SDS011;42705;50.326;18.772;2022-11-15T15:00:59;41.45;;;24.18;;
56824;SDS011;42705;50.326;18.772;2022-11-15T15:06:20;41.90;;;22.22;;
56824;SDS011;42705;50.326;18.772;2022-11-15T15:11:41;41.63;;;22.95;;
56824;SDS011;42705;50.326;18.772;2022-11-15T15:17:02;44.35;;;23.00;;
56824;SDS011;42705;50.326;18.772;2022-11-15T15:22:24;47.23;;;24.93;;
56824;SDS011;42705;50.326;18.772;2022-11-15T15:27:50;49.50;;;26.00;;
56824;SDS011;42705;50.326;18.772;2022-11-15T15:33:11;51.40;;;26.15;;
56824;SDS011;42705;50.326;18.772;2022-11-15T15:38:32;51.20;;;26.87;;
56824;SDS011;42705;50.326;18.772;2022-11-15T15:43:53;46.63;;;26.12;;
56824;SDS011;42705;50.326;18.772;2022-11-15T15:49:14;48.25;;;26.82;;
56824;SDS011;42705;50.326;18.772;2022-11-15T15:54:35;46.90;;;25.70;;
56824;SDS011;42705;50.326;18.772;2022-11-15T15:59:56;45.75;;;24.43;;
56824;SDS011;42705;50.326;18.772;2022-11-15T16:05:17;47.23;;;25.30;;
56824;SDS011;42705;50.326;18.772;2022-11-15T16:10:39;49.27;;;26.00;;
56824;SDS011;42705;50.326;18.772;2022-11-15T16:15:59;45.92;;;25.40;;
56824;SDS011;42705;50.326;18.772;2022-11-15T16:21:20;44.90;;;25.55;;
56824;SDS011;42705;50.326;18.772;2022-11-15T16:26:41;51.90;;;26.57;;
56824;SDS011;42705;50.326;18.772;2022-11-15T16:32:03;49.10;;;28.38;;
56824;SDS011;42705;50.326;18.772;2022-11-15T16:37:24;48.23;;;26.68;;
56824;SDS011;42705;50.326;18.772;2022-11-15T16:42:45;48.97;;;26.43;;
56824;SDS011;42705;50.326;18.772;2022-11-15T16:48:06;47.20;;;27.75;;
56824;SDS011;42705;50.326;18.772;2022-11-15T16:53:43;49.67;;;27.65;;
56824;SDS011;42705;50.326;18.772;2022-11-15T16:59:04;55.73;;;27.82;;
56824;SDS011;42705;50.326;18.772;2022-11-15T17:04:26;58.90;;;30.80;;
56824;SDS011;42705;50.326;18.772;2022-11-15T17:09:49;70.05;;;35.38;;
56824;SDS011;42705;50.326;18.772;2022-11-15T17:15:10;91.08;;;46.92;;
56824;SDS011;42705;50.326;18.772;2022-11-15T17:26:12;180.63;;;93.17;;
56824;SDS011;42705;50.326;18.772;2022-11-15T17:31:24;196.02;;;98.22;;
56824;SDS011;42705;50.326;18.772;2022-11-15T17:36:47;175.32;;;82.40;;
56824;SDS011;42705;50.326;18.772;2022-11-15T17:42:08;183.57;;;85.42;;
56824;SDS011;42705;50.326;18.772;2022-11-15T17:47:29;143.35;;;70.83;;
56824;SDS011;42705;50.326;18.772;2022-11-15T17:52:50;132.35;;;66.10;;
56824;SDS011;42705;50.326;18.772;2022-11-15T17:58:11;111.32;;;59.75;;
56824;SDS011;42705;50.326;18.772;2022-11-15T18:03:33;114.30;;;58.87;;
56824;SDS011;42705;50.326;18.772;2022-11-15T18:08:58;124.85;;;65.08;;
56824;SDS011;42705;50.326;18.772;2022-11-15T18:14:20;117.53;;;61.30;;
56824;SDS011;42705;50.326;18.772;2022-11-15T18:19:41;104.53;;;53.40;;
56824;SDS011;42705;50.326;18.772;2022-11-15T18:25:02;115.42;;;58.90;;
56824;SDS011;42705;50.326;18.772;2022-11-15T18:30:25;113.40;;;59.05;;
56824;SDS011;42705;50.326;18.772;2022-11-15T18:35:46;114.90;;;60.98;;
56824;SDS011;42705;50.326;18.772;2022-11-15T18:46:42;112.97;;;56.80;;
56824;SDS011;42705;50.326;18.772;2022-11-15T18:52:07;121.35;;;61.15;;
56824;SDS011;42705;50.326;18.772;2022-11-15T18:57:29;117.40;;;59.08;;
56824;SDS011;42705;50.326;18.772;2022-11-15T19:02:52;114.12;;;59.13;;
56824;SDS011;42705;50.326;18.772;2022-11-15T19:08:15;102.82;;;57.35;;
56824;SDS011;42705;50.326;18.772;2022-11-15T19:13:36;106.03;;;55.88;;
56824;SDS011;42705;50.326;18.772;2022-11-15T19:18:58;111.85;;;56.23;;
56824;SDS011;42705;50.326;18.772;2022-11-15T19:24:23;108.35;;;57.27;;
56824;SDS011;42705;50.326;18.772;2022-11-15T19:29:45;111.95;;;57.75;;
56824;SDS011;42705;50.326;18.772;2022-11-15T19:40:31;122.10;;;60.80;;
56824;SDS011;42705;50.326;18.772;2022-11-15T19:45:58;91.57;;;50.05;;
56824;SDS011;42705;50.326;18.772;2022-11-15T19:51:18;99.83;;;52.35;;
56824;SDS011;42705;50.326;18.772;2022-11-15T19:56:41;116.37;;;60.98;;
56824;SDS011;42705;50.326;18.772;2022-11-15T20:02:02;127.25;;;64.77;;
56824;SDS011;42705;50.326;18.772;2022-11-15T20:07:25;154.85;;;74.37;;
56824;SDS011;42705;50.326;18.772;2022-11-15T20:12:46;148.22;;;71.60;;
56824;SDS011;42705;50.326;18.772;2022-11-15T20:18:07;137.00;;;65.10;;
56824;SDS011;42705;50.326;18.772;2022-11-15T20:23:28;138.45;;;66.97;;
56824;SDS011;42705;50.326;18.772;2022-11-15T20:28:51;138.92;;;69.27;;
56824;SDS011;42705;50.326;18.772;2022-11-15T20:34:16;130.43;;;66.00;;
56824;SDS011;42705;50.326;18.772;2022-11-15T20:39:37;127.87;;;64.75;;
56824;SDS011;42705;50.326;18.772;2022-11-15T20:45:00;133.67;;;63.33;;
56824;SDS011;42705;50.326;18.772;2022-11-15T20:50:22;126.12;;;63.42;;
56824;SDS011;42705;50.326;18.772;2022-11-15T20:55:46;118.02;;;58.58;;
56824;SDS011;42705;50.326;18.772;2022-11-15T21:01:09;105.67;;;53.13;;
56824;SDS011;42705;50.326;18.772;2022-11-15T21:06:33;101.58;;;53.70;;
56824;SDS011;42705;50.326;18.772;2022-11-15T21:11:54;94.55;;;49.70;;
56824;SDS011;42705;50.326;18.772;2022-11-15T21:17:33;91.02;;;48.50;;
56824;SDS011;42705;50.326;18.772;2022-11-15T21:22:54;106.72;;;52.85;;
56824;SDS011;42705;50.326;18.772;2022-11-15T21:28:16;101.12;;;55.12;;
56824;SDS011;42705;50.326;18.772;2022-11-15T21:33:37;97.05;;;52.15;;
56824;SDS011;42705;50.326;18.772;2022-11-15T21:38:58;98.12;;;53.45;;
56824;SDS011;42705;50.326;18.772;2022-11-15T21:44:19;105.22;;;54.83;;
56824;SDS011;42705;50.326;18.772;2022-11-15T21:49:40;107.27;;;54.20;;
56824;SDS011;42705;50.326;18.772;2022-11-15T21:55:02;99.90;;;51.88;;
56824;SDS011;42705;50.326;18.772;2022-11-15T22:00:23;100.72;;;54.70;;
56824;SDS011;42705;50.326;18.772;2022-11-15T22:06:02;111.88;;;54.30;;
56824;SDS011;42705;50.326;18.772;2022-11-15T22:11:26;95.42;;;49.98;;
56824;SDS011;42705;50.326;18.772;2022-11-15T22:16:49;88.10;;;44.40;;
56824;SDS011;42705;50.326;18.772;2022-11-15T22:22:10;88.40;;;44.77;;
56824;SDS011;42705;50.326;18.772;2022-11-15T22:27:32;92.17;;;47.13;;
56824;SDS011;42705;50.326;18.772;2022-11-15T22:32:53;79.27;;;41.28;;
56824;SDS011;42705;50.326;18.772;2022-11-15T22:38:15;72.47;;;39.08;;
56824;SDS011;42705;50.326;18.772;2022-11-15T22:43:37;73.97;;;39.78;;
56824;SDS011;42705;50.326;18.772;2022-11-15T22:48:59;79.22;;;40.88;;
56824;SDS011;42705;50.326;18.772;2022-11-15T22:54:20;86.90;;;44.70;;
56824;SDS011;42705;50.326;18.772;2022-11-15T22:59:41;86.25;;;44.85;;
56824;SDS011;42705;50.326;18.772;2022-11-15T23:05:03;86.08;;;44.50;;
56824;SDS011;42705;50.326;18.772;2022-11-15T23:10:25;90.75;;;45.85;;
56824;SDS011;42705;50.326;18.772;2022-11-15T23:16:06;94.00;;;47.25;;
56824;SDS011;42705;50.326;18.772;2022-11-15T23:21:43;89.32;;;42.53;;
56824;SDS011;42705;50.326;18.772;2022-11-15T23:27:24;88.25;;;42.73;;
56824;SDS011;42705;50.326;18.772;2022-11-15T23:32:46;89.92;;;43.95;;
56824;SDS011;42705;50.326;18.772;2022-11-15T23:38:25;84.62;;;44.75;;
56824;SDS011;42705;50.326;18.772;2022-11-15T23:43:47;86.20;;;43.65;;
56824;SDS011;42705;50.326;18.772;2022-11-15T23:49:08;78.40;;;42.10;;
56824;SDS011;42705;50.326;18.772;2022-11-15T23:54:30;82.70;;;42.85;;
56824;SDS011;42705;50.326;18.772;2022-11-15T23:59:51;82.37;;;41.37;;
